sensor_id;sensor_type;location;lat;lon;timestamp;P1;durP1;ratioP1;P2;durP2;ratioP2
62030;SDS011;62035;52.094;5.112;2023-04-15T00:00:43;12.05;;;4.47;;
62030;SDS011;62035;52.094;5.112;2023-04-15T00:03:12;10.23;;;4.32;;
62030;SDS011;62035;52.094;5.112;2023-04-15T00:05:40;15.65;;;4.10;;
62030;SDS011;62035;52.094;5.112;2023-04-15T00:08:08;8.88;;;4.25;;
62030;SDS011;62035;52.094;5.112;2023-04-15T00:10:35;8.77;;;3.95;;
62030;SDS011;62035;52.094;5.112;2023-04-15T00:13:03;12.65;;;4.72;;
62030;SDS011;62035;52.094;5.112;2023-04-15T00:15:30;8.40;;;4.65;;
62030;SDS011;62035;52.094;5.112;2023-04-15T00:17:58;9.27;;;4.85;;
62030;SDS011;62035;52.094;5.112;2023-04-15T00:20:27;11.45;;;4.68;;
62030;SDS011;62035;52.094;5.112;2023-04-15T00:22:54;10.50;;;5.05;;
62030;SDS011;62035;52.094;5.112;2023-04-15T00:25:22;13.27;;;5.63;;
62030;SDS011;62035;52.094;5.112;2023-04-15T00:27:50;11.93;;;5.22;;
62030;SDS011;62035;52.094;5.112;2023-04-15T00:30:17;11.70;;;4.60;;
62030;SDS011;62035;52.094;5.112;2023-04-15T00:32:45;10.40;;;5.13;;
62030;SDS011;62035;52.094;5.112;2023-04-15T00:35:14;15.05;;;5.25;;
62030;SDS011;62035;52.094;5.112;2023-04-15T00:37:43;9.70;;;5.20;;
62030;SDS011;62035;52.094;5.112;2023-04-15T00:40:11;11.73;;;4.95;;
62030;SDS011;62035;52.094;5.112;2023-04-15T00:42:39;9.57;;;5.15;;
62030;SDS011;62035;52.094;5.112;2023-04-15T00:45:07;13.73;;;5.55;;
62030;SDS011;62035;52.094;5.112;2023-04-15T00:47:36;9.23;;;4.63;;
62030;SDS011;62035;52.094;5.112;2023-04-15T00:50:08;9.77;;;4.65;;
62030;SDS011;62035;52.094;5.112;2023-04-15T00:52:37;9.45;;;4.72;;
62030;SDS011;62035;52.094;5.112;2023-04-15T00:55:07;9.00;;;4.80;;
62030;SDS011;62035;52.094;5.112;2023-04-15T00:57:36;10.90;;;4.85;;
62030;SDS011;62035;52.094;5.112;2023-04-15T01:00:05;9.00;;;4.78;;
62030;SDS011;62035;52.094;5.112;2023-04-15T01:02:36;10.52;;;5.00;;
62030;SDS011;62035;52.094;5.112;2023-04-15T01:05:04;9.40;;;4.30;;
62030;SDS011;62035;52.094;5.112;2023-04-15T01:07:32;11.55;;;4.75;;
62030;SDS011;62035;52.094;5.112;2023-04-15T01:10:00;10.07;;;4.70;;
62030;SDS011;62035;52.094;5.112;2023-04-15T01:12:30;8.63;;;4.35;;
62030;SDS011;62035;52.094;5.112;2023-04-15T01:15:00;10.67;;;4.60;;
62030;SDS011;62035;52.094;5.112;2023-04-15T01:17:28;8.48;;;4.68;;
62030;SDS011;62035;52.094;5.112;2023-04-15T01:19:56;9.07;;;3.80;;
62030;SDS011;62035;52.094;5.112;2023-04-15T01:22:24;10.20;;;4.20;;
62030;SDS011;62035;52.094;5.112;2023-04-15T01:24:54;8.25;;;4.22;;
62030;SDS011;62035;52.094;5.112;2023-04-15T01:27:34;10.57;;;4.50;;
62030;SDS011;62035;52.094;5.112;2023-04-15T01:30:06;9.68;;;4.20;;
62030;SDS011;62035;52.094;5.112;2023-04-15T01:32:35;10.30;;;4.50;;
62030;SDS011;62035;52.094;5.112;2023-04-15T01:35:03;6.80;;;3.70;;
62030;SDS011;62035;52.094;5.112;2023-04-15T01:37:31;8.10;;;4.15;;
62030;SDS011;62035;52.094;5.112;2023-04-15T01:40:00;7.07;;;3.92;;
62030;SDS011;62035;52.094;5.112;2023-04-15T01:42:28;13.60;;;4.00;;
62030;SDS011;62035;52.094;5.112;2023-04-15T01:44:57;11.73;;;4.32;;
62030;SDS011;62035;52.094;5.112;2023-04-15T01:47:25;10.40;;;4.47;;
62030;SDS011;62035;52.094;5.112;2023-04-15T01:49:52;7.47;;;4.35;;
62030;SDS011;62035;52.094;5.112;2023-04-15T01:52:20;12.68;;;4.57;;
62030;SDS011;62035;52.094;5.112;2023-04-15T01:54:48;11.25;;;4.32;;
62030;SDS011;62035;52.094;5.112;2023-04-15T01:57:16;9.38;;;4.10;;
62030;SDS011;62035;52.094;5.112;2023-04-15T01:59:43;9.50;;;4.68;;
62030;SDS011;62035;52.094;5.112;2023-04-15T02:02:13;8.40;;;4.20;;
62030;SDS011;62035;52.094;5.112;2023-04-15T02:04:41;7.43;;;4.28;;
62030;SDS011;62035;52.094;5.112;2023-04-15T02:07:09;9.90;;;4.20;;
62030;SDS011;62035;52.094;5.112;2023-04-15T02:09:36;9.70;;;4.68;;
62030;SDS011;62035;52.094;5.112;2023-04-15T02:12:04;8.25;;;4.50;;
62030;SDS011;62035;52.094;5.112;2023-04-15T02:14:32;8.52;;;4.45;;
62030;SDS011;62035;52.094;5.112;2023-04-15T02:16:59;11.10;;;4.50;;
62030;SDS011;62035;52.094;5.112;2023-04-15T02:19:33;10.73;;;4.63;;
62030;SDS011;62035;52.094;5.112;2023-04-15T02:22:01;9.35;;;4.70;;
62030;SDS011;62035;52.094;5.112;2023-04-15T02:24:29;7.63;;;4.55;;
62030;SDS011;62035;52.094;5.112;2023-04-15T02:26:57;8.52;;;4.60;;
62030;SDS011;62035;52.094;5.112;2023-04-15T02:29:24;8.43;;;4.47;;
62030;SDS011;62035;52.094;5.112;2023-04-15T02:31:52;9.02;;;4.53;;
62030;SDS011;62035;52.094;5.112;2023-04-15T02:34:19;8.73;;;4.45;;
62030;SDS011;62035;52.094;5.112;2023-04-15T02:36:48;10.50;;;4.40;;
62030;SDS011;62035;52.094;5.112;2023-04-15T02:39:19;9.20;;;4.20;;
62030;SDS011;62035;52.094;5.112;2023-04-15T02:41:47;9.23;;;4.35;;
62030;SDS011;62035;52.094;5.112;2023-04-15T02:44:16;12.15;;;4.40;;
62030;SDS011;62035;52.094;5.112;2023-04-15T02:46:45;8.10;;;4.70;;
62030;SDS011;62035;52.094;5.112;2023-04-15T02:49:15;6.57;;;4.07;;
62030;SDS011;62035;52.094;5.112;2023-04-15T02:51:43;10.70;;;4.80;;
62030;SDS011;62035;52.094;5.112;2023-04-15T02:54:15;9.77;;;5.03;;
62030;SDS011;62035;52.094;5.112;2023-04-15T02:56:42;8.43;;;4.38;;
62030;SDS011;62035;52.094;5.112;2023-04-15T02:59:10;7.32;;;4.30;;
62030;SDS011;62035;52.094;5.112;2023-04-15T03:01:39;10.75;;;4.70;;
62030;SDS011;62035;52.094;5.112;2023-04-15T03:04:06;11.05;;;5.15;;
62030;SDS011;62035;52.094;5.112;2023-04-15T03:06:34;7.63;;;4.68;;
62030;SDS011;62035;52.094;5.112;2023-04-15T03:09:02;9.90;;;4.72;;
62030;SDS011;62035;52.094;5.112;2023-04-15T03:11:31;13.05;;;4.75;;
62030;SDS011;62035;52.094;5.112;2023-04-15T03:13:58;9.70;;;4.63;;
62030;SDS011;62035;52.094;5.112;2023-04-15T03:16:26;9.35;;;4.70;;
62030;SDS011;62035;52.094;5.112;2023-04-15T03:18:54;10.18;;;5.18;;
62030;SDS011;62035;52.094;5.112;2023-04-15T03:21:21;12.27;;;5.18;;
62030;SDS011;62035;52.094;5.112;2023-04-15T03:23:49;7.63;;;4.22;;
62030;SDS011;62035;52.094;5.112;2023-04-15T03:26:23;7.07;;;4.47;;
62030;SDS011;62035;52.094;5.112;2023-04-15T03:28:54;10.02;;;5.32;;
62030;SDS011;62035;52.094;5.112;2023-04-15T03:31:23;11.20;;;5.07;;
62030;SDS011;62035;52.094;5.112;2023-04-15T03:33:51;12.13;;;5.47;;
62030;SDS011;62035;52.094;5.112;2023-04-15T03:36:18;11.50;;;5.30;;
62030;SDS011;62035;52.094;5.112;2023-04-15T03:38:46;10.93;;;4.90;;
62030;SDS011;62035;52.094;5.112;2023-04-15T03:41:14;7.63;;;4.53;;
62030;SDS011;62035;52.094;5.112;2023-04-15T03:43:42;11.73;;;5.85;;
62030;SDS011;62035;52.094;5.112;2023-04-15T03:46:11;9.20;;;5.32;;
62030;SDS011;62035;52.094;5.112;2023-04-15T03:48:38;8.77;;;5.30;;
62030;SDS011;62035;52.094;5.112;2023-04-15T03:51:06;11.65;;;5.55;;
62030;SDS011;62035;52.094;5.112;2023-04-15T03:53:33;8.25;;;4.68;;
62030;SDS011;62035;52.094;5.112;2023-04-15T03:56:01;10.65;;;5.15;;
62030;SDS011;62035;52.094;5.112;2023-04-15T03:58:29;14.82;;;5.53;;
62030;SDS011;62035;52.094;5.112;2023-04-15T04:00:56;11.15;;;5.20;;
62030;SDS011;62035;52.094;5.112;2023-04-15T04:03:25;9.25;;;5.30;;
62030;SDS011;62035;52.094;5.112;2023-04-15T04:05:53;9.10;;;4.85;;
62030;SDS011;62035;52.094;5.112;2023-04-15T04:08:21;12.18;;;5.30;;
62030;SDS011;62035;52.094;5.112;2023-04-15T04:10:48;11.85;;;5.30;;
62030;SDS011;62035;52.094;5.112;2023-04-15T04:13:16;7.88;;;5.40;;
62030;SDS011;62035;52.094;5.112;2023-04-15T04:15:43;10.70;;;5.55;;
62030;SDS011;62035;52.094;5.112;2023-04-15T04:18:11;8.77;;;5.10;;
62030;SDS011;62035;52.094;5.112;2023-04-15T04:20:40;9.57;;;5.10;;
62030;SDS011;62035;52.094;5.112;2023-04-15T04:23:08;7.82;;;5.20;;
62030;SDS011;62035;52.094;5.112;2023-04-15T04:25:35;8.38;;;4.72;;
62030;SDS011;62035;52.094;5.112;2023-04-15T04:28:03;11.18;;;5.55;;
62030;SDS011;62035;52.094;5.112;2023-04-15T04:30:31;10.90;;;5.82;;
62030;SDS011;62035;52.094;5.112;2023-04-15T04:32:59;10.27;;;5.70;;
62030;SDS011;62035;52.094;5.112;2023-04-15T04:35:26;9.55;;;5.82;;
62030;SDS011;62035;52.094;5.112;2023-04-15T04:37:55;9.93;;;5.50;;
62030;SDS011;62035;52.094;5.112;2023-04-15T04:40:23;10.57;;;5.28;;
62030;SDS011;62035;52.094;5.112;2023-04-15T04:42:51;10.68;;;5.82;;
62030;SDS011;62035;52.094;5.112;2023-04-15T04:45:19;10.38;;;5.82;;
62030;SDS011;62035;52.094;5.112;2023-04-15T04:47:47;8.35;;;5.40;;
62030;SDS011;62035;52.094;5.112;2023-04-15T04:50:15;9.25;;;5.78;;
62030;SDS011;62035;52.094;5.112;2023-04-15T04:52:42;17.40;;;5.97;;
62030;SDS011;62035;52.094;5.112;2023-04-15T04:55:11;11.30;;;5.53;;
62030;SDS011;62035;52.094;5.112;2023-04-15T04:57:39;14.95;;;6.18;;
62030;SDS011;62035;52.094;5.112;2023-04-15T05:00:07;11.25;;;5.80;;
62030;SDS011;62035;52.094;5.112;2023-04-15T05:02:36;13.05;;;6.07;;
62030;SDS011;62035;52.094;5.112;2023-04-15T05:05:04;11.85;;;6.40;;
62030;SDS011;62035;52.094;5.112;2023-04-15T05:07:32;12.52;;;5.90;;
62030;SDS011;62035;52.094;5.112;2023-04-15T05:10:00;10.38;;;5.78;;
62030;SDS011;62035;52.094;5.112;2023-04-15T05:12:29;10.95;;;5.70;;
62030;SDS011;62035;52.094;5.112;2023-04-15T05:14:57;11.43;;;5.90;;
62030;SDS011;62035;52.094;5.112;2023-04-15T05:17:24;11.88;;;6.45;;
62030;SDS011;62035;52.094;5.112;2023-04-15T05:19:52;9.73;;;6.03;;
62030;SDS011;62035;52.094;5.112;2023-04-15T05:22:20;13.38;;;6.32;;
62030;SDS011;62035;52.094;5.112;2023-04-15T05:24:47;11.95;;;6.15;;
62030;SDS011;62035;52.094;5.112;2023-04-15T05:27:15;10.30;;;6.20;;
62030;SDS011;62035;52.094;5.112;2023-04-15T05:29:45;8.32;;;5.72;;
62030;SDS011;62035;52.094;5.112;2023-04-15T05:32:12;9.93;;;6.18;;
62030;SDS011;62035;52.094;5.112;2023-04-15T05:34:40;11.43;;;6.03;;
62030;SDS011;62035;52.094;5.112;2023-04-15T05:37:08;9.73;;;6.13;;
62030;SDS011;62035;52.094;5.112;2023-04-15T05:39:35;11.20;;;6.32;;
62030;SDS011;62035;52.094;5.112;2023-04-15T05:42:03;10.02;;;6.28;;
62030;SDS011;62035;52.094;5.112;2023-04-15T05:44:31;10.13;;;5.72;;
62030;SDS011;62035;52.094;5.112;2023-04-15T05:47:00;11.63;;;6.50;;
62030;SDS011;62035;52.094;5.112;2023-04-15T05:49:28;7.95;;;5.50;;
62030;SDS011;62035;52.094;5.112;2023-04-15T05:51:55;10.63;;;6.43;;
62030;SDS011;62035;52.094;5.112;2023-04-15T05:54:23;11.63;;;6.25;;
62030;SDS011;62035;52.094;5.112;2023-04-15T05:56:52;10.57;;;6.18;;
62030;SDS011;62035;52.094;5.112;2023-04-15T05:59:21;10.27;;;6.30;;
62030;SDS011;62035;52.094;5.112;2023-04-15T06:01:48;12.18;;;6.25;;
62030;SDS011;62035;52.094;5.112;2023-04-15T06:04:18;11.88;;;6.47;;
62030;SDS011;62035;52.094;5.112;2023-04-15T06:06:46;11.55;;;6.22;;
62030;SDS011;62035;52.094;5.112;2023-04-15T06:09:14;9.38;;;5.65;;
62030;SDS011;62035;52.094;5.112;2023-04-15T06:11:41;10.27;;;6.20;;
62030;SDS011;62035;52.094;5.112;2023-04-15T06:14:09;12.95;;;6.28;;
62030;SDS011;62035;52.094;5.112;2023-04-15T06:16:37;9.95;;;5.97;;
62030;SDS011;62035;52.094;5.112;2023-04-15T06:19:04;11.25;;;6.50;;
62030;SDS011;62035;52.094;5.112;2023-04-15T06:21:33;9.65;;;6.47;;
62030;SDS011;62035;52.094;5.112;2023-04-15T06:24:01;12.43;;;6.20;;
62030;SDS011;62035;52.094;5.112;2023-04-15T06:26:28;9.68;;;6.45;;
62030;SDS011;62035;52.094;5.112;2023-04-15T06:28:56;13.05;;;6.85;;
62030;SDS011;62035;52.094;5.112;2023-04-15T06:31:23;16.52;;;6.43;;
62030;SDS011;62035;52.094;5.112;2023-04-15T06:33:51;8.95;;;5.40;;
62030;SDS011;62035;52.094;5.112;2023-04-15T06:36:18;9.38;;;6.10;;
62030;SDS011;62035;52.094;5.112;2023-04-15T06:38:47;12.63;;;6.18;;
62030;SDS011;62035;52.094;5.112;2023-04-15T06:41:15;11.65;;;6.70;;
62030;SDS011;62035;52.094;5.112;2023-04-15T06:43:43;13.10;;;7.22;;
62030;SDS011;62035;52.094;5.112;2023-04-15T06:46:11;10.68;;;6.70;;
62030;SDS011;62035;52.094;5.112;2023-04-15T06:48:39;10.23;;;6.90;;
62030;SDS011;62035;52.094;5.112;2023-04-15T06:51:06;8.68;;;6.35;;
62030;SDS011;62035;52.094;5.112;2023-04-15T06:53:34;12.77;;;6.03;;
62030;SDS011;62035;52.094;5.112;2023-04-15T06:56:07;13.52;;;6.80;;
62030;SDS011;62035;52.094;5.112;2023-04-15T06:58:35;12.18;;;7.30;;
62030;SDS011;62035;52.094;5.112;2023-04-15T07:01:03;12.32;;;7.15;;
62030;SDS011;62035;52.094;5.112;2023-04-15T07:03:31;10.40;;;6.70;;
62030;SDS011;62035;52.094;5.112;2023-04-15T07:05:59;11.35;;;6.63;;
62030;SDS011;62035;52.094;5.112;2023-04-15T07:08:26;10.50;;;6.47;;
62030;SDS011;62035;52.094;5.112;2023-04-15T07:10:54;13.65;;;7.40;;
62030;SDS011;62035;52.094;5.112;2023-04-15T07:13:23;10.68;;;6.82;;
62030;SDS011;62035;52.094;5.112;2023-04-15T07:15:51;12.75;;;7.05;;
62030;SDS011;62035;52.094;5.112;2023-04-15T07:18:18;12.30;;;7.00;;
62030;SDS011;62035;52.094;5.112;2023-04-15T07:20:46;13.77;;;7.03;;
62030;SDS011;62035;52.094;5.112;2023-04-15T07:23:14;13.25;;;7.70;;
62030;SDS011;62035;52.094;5.112;2023-04-15T07:25:42;11.60;;;7.47;;
62030;SDS011;62035;52.094;5.112;2023-04-15T07:28:09;12.70;;;7.20;;
62030;SDS011;62035;52.094;5.112;2023-04-15T07:30:38;9.55;;;6.75;;
62030;SDS011;62035;52.094;5.112;2023-04-15T07:33:06;12.00;;;6.70;;
62030;SDS011;62035;52.094;5.112;2023-04-15T07:35:33;10.02;;;6.88;;
62030;SDS011;62035;52.094;5.112;2023-04-15T07:38:01;10.93;;;6.25;;
62030;SDS011;62035;52.094;5.112;2023-04-15T07:40:29;10.38;;;6.03;;
62030;SDS011;62035;52.094;5.112;2023-04-15T07:42:56;12.20;;;5.70;;
62030;SDS011;62035;52.094;5.112;2023-04-15T07:45:24;9.55;;;5.63;;
62030;SDS011;62035;52.094;5.112;2023-04-15T07:47:53;8.95;;;5.35;;
62030;SDS011;62035;52.094;5.112;2023-04-15T07:50:22;9.13;;;4.72;;
62030;SDS011;62035;52.094;5.112;2023-04-15T07:52:50;7.60;;;4.45;;
62030;SDS011;62035;52.094;5.112;2023-04-15T07:55:18;8.02;;;4.68;;
62030;SDS011;62035;52.094;5.112;2023-04-15T07:57:47;6.88;;;4.65;;
62030;SDS011;62035;52.094;5.112;2023-04-15T08:00:15;7.25;;;4.20;;
62030;SDS011;62035;52.094;5.112;2023-04-15T08:02:43;6.85;;;4.30;;
62030;SDS011;62035;52.094;5.112;2023-04-15T08:05:13;6.90;;;4.10;;
62030;SDS011;62035;52.094;5.112;2023-04-15T08:07:41;7.63;;;4.07;;
62030;SDS011;62035;52.094;5.112;2023-04-15T08:10:08;9.55;;;4.45;;
62030;SDS011;62035;52.094;5.112;2023-04-15T08:12:36;7.38;;;4.40;;
62030;SDS011;62035;52.094;5.112;2023-04-15T08:15:04;7.90;;;4.70;;
62030;SDS011;62035;52.094;5.112;2023-04-15T08:17:33;8.00;;;4.70;;
62030;SDS011;62035;52.094;5.112;2023-04-15T08:20:02;7.82;;;4.82;;
62030;SDS011;62035;52.094;5.112;2023-04-15T08:22:32;7.05;;;4.35;;
62030;SDS011;62035;52.094;5.112;2023-04-15T08:24:59;8.00;;;5.22;;
62030;SDS011;62035;52.094;5.112;2023-04-15T08:27:27;13.93;;;5.68;;
62030;SDS011;62035;52.094;5.112;2023-04-15T08:29:54;8.65;;;5.20;;
62030;SDS011;62035;52.094;5.112;2023-04-15T08:32:22;10.23;;;5.32;;
62030;SDS011;62035;52.094;5.112;2023-04-15T08:34:51;10.68;;;5.70;;
62030;SDS011;62035;52.094;5.112;2023-04-15T08:37:19;10.55;;;5.07;;
62030;SDS011;62035;52.094;5.112;2023-04-15T08:39:49;9.70;;;4.82;;
62030;SDS011;62035;52.094;5.112;2023-04-15T08:42:17;7.90;;;4.78;;
62030;SDS011;62035;52.094;5.112;2023-04-15T08:44:53;10.20;;;4.75;;
62030;SDS011;62035;52.094;5.112;2023-04-15T08:47:22;7.40;;;4.40;;
62030;SDS011;62035;52.094;5.112;2023-04-15T08:49:55;7.05;;;4.45;;
62030;SDS011;62035;52.094;5.112;2023-04-15T08:52:24;6.85;;;4.05;;
62030;SDS011;62035;52.094;5.112;2023-04-15T08:54:55;5.70;;;3.88;;
62030;SDS011;62035;52.094;5.112;2023-04-15T08:57:25;8.15;;;4.32;;
62030;SDS011;62035;52.094;5.112;2023-04-15T08:59:54;7.78;;;3.88;;
62030;SDS011;62035;52.094;5.112;2023-04-15T09:02:23;7.50;;;4.30;;
62030;SDS011;62035;52.094;5.112;2023-04-15T09:04:52;10.80;;;4.32;;
62030;SDS011;62035;52.094;5.112;2023-04-15T09:07:20;8.50;;;3.50;;
62030;SDS011;62035;52.094;5.112;2023-04-15T09:09:47;7.32;;;3.38;;
62030;SDS011;62035;52.094;5.112;2023-04-15T09:12:17;6.00;;;3.80;;
62030;SDS011;62035;52.094;5.112;2023-04-15T09:14:45;8.88;;;3.90;;
62030;SDS011;62035;52.094;5.112;2023-04-15T09:17:13;7.55;;;3.13;;
62030;SDS011;62035;52.094;5.112;2023-04-15T09:19:46;6.50;;;3.15;;
62030;SDS011;62035;52.094;5.112;2023-04-15T09:22:14;7.38;;;3.20;;
62030;SDS011;62035;52.094;5.112;2023-04-15T09:24:42;9.55;;;4.57;;
62030;SDS011;62035;52.094;5.112;2023-04-15T09:27:09;4.75;;;2.47;;
62030;SDS011;62035;52.094;5.112;2023-04-15T09:29:38;3.55;;;2.50;;
62030;SDS011;62035;52.094;5.112;2023-04-15T09:32:08;4.70;;;2.40;;
62030;SDS011;62035;52.094;5.112;2023-04-15T09:34:37;4.00;;;2.40;;
62030;SDS011;62035;52.094;5.112;2023-04-15T09:37:05;4.18;;;2.33;;
62030;SDS011;62035;52.094;5.112;2023-04-15T09:39:44;24.10;;;3.20;;
62030;SDS011;62035;52.094;5.112;2023-04-15T09:42:14;6.47;;;2.88;;
62030;SDS011;62035;52.094;5.112;2023-04-15T09:44:50;5.80;;;3.28;;
62030;SDS011;62035;52.094;5.112;2023-04-15T09:47:27;5.60;;;3.08;;
62030;SDS011;62035;52.094;5.112;2023-04-15T09:49:56;9.73;;;4.43;;
62030;SDS011;62035;52.094;5.112;2023-04-15T09:52:24;12.57;;;3.17;;
62030;SDS011;62035;52.094;5.112;2023-04-15T09:54:52;5.25;;;3.00;;
62030;SDS011;62035;52.094;5.112;2023-04-15T09:57:21;7.90;;;3.67;;
62030;SDS011;62035;52.094;5.112;2023-04-15T09:59:51;7.07;;;3.15;;
62030;SDS011;62035;52.094;5.112;2023-04-15T10:02:18;6.13;;;3.20;;
62030;SDS011;62035;52.094;5.112;2023-04-15T10:04:46;7.47;;;3.47;;
62030;SDS011;62035;52.094;5.112;2023-04-15T10:07:16;11.20;;;3.25;;
62030;SDS011;62035;52.094;5.112;2023-04-15T10:09:45;5.13;;;2.60;;
62030;SDS011;62035;52.094;5.112;2023-04-15T10:12:14;4.88;;;2.55;;
62030;SDS011;62035;52.094;5.112;2023-04-15T10:14:45;4.68;;;2.60;;
62030;SDS011;62035;52.094;5.112;2023-04-15T10:17:22;3.20;;;1.83;;
62030;SDS011;62035;52.094;5.112;2023-04-15T10:19:54;2.72;;;1.85;;
62030;SDS011;62035;52.094;5.112;2023-04-15T10:22:22;3.67;;;2.10;;
62030;SDS011;62035;52.094;5.112;2023-04-15T10:24:52;2.90;;;1.60;;
62030;SDS011;62035;52.094;5.112;2023-04-15T10:27:22;3.25;;;1.67;;
62030;SDS011;62035;52.094;5.112;2023-04-15T10:29:50;4.18;;;2.15;;
62030;SDS011;62035;52.094;5.112;2023-04-15T10:32:20;3.97;;;2.10;;
62030;SDS011;62035;52.094;5.112;2023-04-15T10:34:51;3.67;;;2.00;;
62030;SDS011;62035;52.094;5.112;2023-04-15T10:37:21;3.47;;;2.30;;
62030;SDS011;62035;52.094;5.112;2023-04-15T10:39:59;5.07;;;2.10;;
62030;SDS011;62035;52.094;5.112;2023-04-15T10:42:32;6.53;;;2.45;;
62030;SDS011;62035;52.094;5.112;2023-04-15T10:45:02;7.63;;;2.30;;
62030;SDS011;62035;52.094;5.112;2023-04-15T10:47:44;4.70;;;2.40;;
62030;SDS011;62035;52.094;5.112;2023-04-15T10:50:12;3.35;;;2.33;;
62030;SDS011;62035;52.094;5.112;2023-04-15T10:52:39;6.13;;;3.30;;
62030;SDS011;62035;52.094;5.112;2023-04-15T10:55:13;7.32;;;3.20;;
62030;SDS011;62035;52.094;5.112;2023-04-15T10:57:46;7.13;;;3.35;;
62030;SDS011;62035;52.094;5.112;2023-04-15T11:00:20;5.05;;;3.10;;
62030;SDS011;62035;52.094;5.112;2023-04-15T11:02:53;5.30;;;3.45;;
62030;SDS011;62035;52.094;5.112;2023-04-15T11:05:22;6.90;;;3.00;;
62030;SDS011;62035;52.094;5.112;2023-04-15T11:08:18;4.60;;;2.88;;
62030;SDS011;62035;52.094;5.112;2023-04-15T11:10:49;5.28;;;2.92;;
62030;SDS011;62035;52.094;5.112;2023-04-15T11:13:22;10.38;;;2.95;;
62030;SDS011;62035;52.094;5.112;2023-04-15T11:18:26;6.30;;;3.33;;
62030;SDS011;62035;52.094;5.112;2023-04-15T11:21:02;5.88;;;3.40;;
62030;SDS011;62035;52.094;5.112;2023-04-15T11:23:33;4.22;;;3.03;;
62030;SDS011;62035;52.094;5.112;2023-04-15T11:26:04;5.32;;;3.00;;
62030;SDS011;62035;52.094;5.112;2023-04-15T11:28:37;5.80;;;3.38;;
62030;SDS011;62035;52.094;5.112;2023-04-15T11:31:07;6.30;;;2.90;;
62030;SDS011;62035;52.094;5.112;2023-04-15T11:33:37;5.03;;;2.97;;
62030;SDS011;62035;52.094;5.112;2023-04-15T11:36:14;6.25;;;3.15;;
62030;SDS011;62035;52.094;5.112;2023-04-15T11:38:42;6.95;;;3.40;;
62030;SDS011;62035;52.094;5.112;2023-04-15T11:41:11;5.10;;;2.92;;
62030;SDS011;62035;52.094;5.112;2023-04-15T11:43:39;6.18;;;2.65;;
62030;SDS011;62035;52.094;5.112;2023-04-15T11:46:07;6.35;;;2.40;;
62030;SDS011;62035;52.094;5.112;2023-04-15T11:48:35;3.97;;;2.25;;
62030;SDS011;62035;52.094;5.112;2023-04-15T11:51:03;10.63;;;3.15;;
62030;SDS011;62035;52.094;5.112;2023-04-15T11:53:37;5.03;;;1.83;;
62030;SDS011;62035;52.094;5.112;2023-04-15T11:56:07;3.10;;;1.77;;
62030;SDS011;62035;52.094;5.112;2023-04-15T11:58:36;3.13;;;2.10;;
62030;SDS011;62035;52.094;5.112;2023-04-15T12:01:05;6.38;;;2.08;;
62030;SDS011;62035;52.094;5.112;2023-04-15T12:03:36;3.45;;;2.10;;
62030;SDS011;62035;52.094;5.112;2023-04-15T12:06:09;4.70;;;1.90;;
62030;SDS011;62035;52.094;5.112;2023-04-15T12:08:49;4.95;;;2.17;;
62030;SDS011;62035;52.094;5.112;2023-04-15T12:11:36;4.78;;;1.80;;
62030;SDS011;62035;52.094;5.112;2023-04-15T12:14:10;4.10;;;2.20;;
62030;SDS011;62035;52.094;5.112;2023-04-15T12:16:51;5.85;;;2.00;;
62030;SDS011;62035;52.094;5.112;2023-04-15T12:19:24;3.05;;;2.00;;
62030;SDS011;62035;52.094;5.112;2023-04-15T12:21:59;2.92;;;1.80;;
62030;SDS011;62035;52.094;5.112;2023-04-15T12:24:31;4.20;;;2.05;;
62030;SDS011;62035;52.094;5.112;2023-04-15T12:29:30;4.00;;;1.90;;
62030;SDS011;62035;52.094;5.112;2023-04-15T12:32:03;4.93;;;2.20;;
62030;SDS011;62035;52.094;5.112;2023-04-15T12:34:33;6.00;;;2.10;;
62030;SDS011;62035;52.094;5.112;2023-04-15T12:37:03;6.15;;;2.08;;
62030;SDS011;62035;52.094;5.112;2023-04-15T12:39:36;5.63;;;2.30;;
62030;SDS011;62035;52.094;5.112;2023-04-15T12:42:06;4.07;;;2.60;;
62030;SDS011;62035;52.094;5.112;2023-04-15T12:44:34;4.32;;;2.42;;
62030;SDS011;62035;52.094;5.112;2023-04-15T12:47:03;3.95;;;2.20;;
62030;SDS011;62035;52.094;5.112;2023-04-15T12:49:32;4.93;;;2.30;;
62030;SDS011;62035;52.094;5.112;2023-04-15T12:52:00;3.83;;;2.20;;
62030;SDS011;62035;52.094;5.112;2023-04-15T12:54:29;6.22;;;2.25;;
62030;SDS011;62035;52.094;5.112;2023-04-15T12:56:59;4.47;;;2.50;;
62030;SDS011;62035;52.094;5.112;2023-04-15T12:59:28;4.85;;;2.50;;
62030;SDS011;62035;52.094;5.112;2023-04-15T13:01:55;4.72;;;3.03;;
62030;SDS011;62035;52.094;5.112;2023-04-15T13:04:25;5.57;;;2.30;;
62030;SDS011;62035;52.094;5.112;2023-04-15T13:06:55;3.97;;;2.20;;
62030;SDS011;62035;52.094;5.112;2023-04-15T13:09:22;2.85;;;1.75;;
62030;SDS011;62035;52.094;5.112;2023-04-15T13:11:50;3.50;;;2.10;;
62030;SDS011;62035;52.094;5.112;2023-04-15T13:14:20;6.55;;;2.10;;
62030;SDS011;62035;52.094;5.112;2023-04-15T13:16:47;4.80;;;2.10;;
62030;SDS011;62035;52.094;5.112;2023-04-15T13:19:15;6.88;;;1.83;;
62030;SDS011;62035;52.094;5.112;2023-04-15T13:21:43;4.43;;;1.70;;
62030;SDS011;62035;52.094;5.112;2023-04-15T13:24:10;6.85;;;2.13;;
62030;SDS011;62035;52.094;5.112;2023-04-15T13:26:38;5.45;;;1.98;;
62030;SDS011;62035;52.094;5.112;2023-04-15T13:29:05;7.25;;;1.70;;
62030;SDS011;62035;52.094;5.112;2023-04-15T13:31:34;6.70;;;2.00;;
62030;SDS011;62035;52.094;5.112;2023-04-15T13:34:02;5.93;;;1.60;;
62030;SDS011;62035;52.094;5.112;2023-04-15T13:36:29;5.97;;;1.92;;
62030;SDS011;62035;52.094;5.112;2023-04-15T13:38:57;3.88;;;1.63;;
62030;SDS011;62035;52.094;5.112;2023-04-15T13:41:25;4.20;;;1.50;;
62030;SDS011;62035;52.094;5.112;2023-04-15T13:43:52;3.50;;;1.40;;
62030;SDS011;62035;52.094;5.112;2023-04-15T13:46:20;5.47;;;1.40;;
62030;SDS011;62035;52.094;5.112;2023-04-15T13:48:49;3.95;;;1.20;;
62030;SDS011;62035;52.094;5.112;2023-04-15T13:51:17;5.78;;;1.48;;
62030;SDS011;62035;52.094;5.112;2023-04-15T13:53:44;3.85;;;1.85;;
62030;SDS011;62035;52.094;5.112;2023-04-15T13:56:12;4.57;;;1.40;;
62030;SDS011;62035;52.094;5.112;2023-04-15T13:58:39;3.47;;;1.10;;
62030;SDS011;62035;52.094;5.112;2023-04-15T14:01:07;1.98;;;1.10;;
62030;SDS011;62035;52.094;5.112;2023-04-15T14:03:35;3.80;;;1.27;;
62030;SDS011;62035;52.094;5.112;2023-04-15T14:06:04;5.10;;;1.45;;
62030;SDS011;62035;52.094;5.112;2023-04-15T14:08:32;3.25;;;1.23;;
62030;SDS011;62035;52.094;5.112;2023-04-15T14:11:00;6.32;;;1.40;;
62030;SDS011;62035;52.094;5.112;2023-04-15T14:13:27;7.78;;;1.77;;
62030;SDS011;62035;52.094;5.112;2023-04-15T14:15:55;4.22;;;1.38;;
62030;SDS011;62035;52.094;5.112;2023-04-15T14:18:23;4.55;;;1.33;;
62030;SDS011;62035;52.094;5.112;2023-04-15T14:20:51;6.55;;;1.70;;
62030;SDS011;62035;52.094;5.112;2023-04-15T14:23:20;5.85;;;1.48;;
62030;SDS011;62035;52.094;5.112;2023-04-15T14:25:48;5.55;;;2.00;;
62030;SDS011;62035;52.094;5.112;2023-04-15T14:28:16;6.50;;;1.60;;
62030;SDS011;62035;52.094;5.112;2023-04-15T14:30:44;4.03;;;1.50;;
62030;SDS011;62035;52.094;5.112;2023-04-15T14:33:12;7.45;;;1.80;;
62030;SDS011;62035;52.094;5.112;2023-04-15T14:35:39;6.72;;;1.55;;
62030;SDS011;62035;52.094;5.112;2023-04-15T14:38:07;3.00;;;1.38;;
62030;SDS011;62035;52.094;5.112;2023-04-15T14:40:37;4.10;;;1.60;;
62030;SDS011;62035;52.094;5.112;2023-04-15T14:43:05;3.47;;;1.80;;
62030;SDS011;62035;52.094;5.112;2023-04-15T14:45:32;6.30;;;2.03;;
62030;SDS011;62035;52.094;5.112;2023-04-15T14:48:01;8.18;;;1.63;;
62030;SDS011;62035;52.094;5.112;2023-04-15T14:50:28;6.53;;;1.98;;
62030;SDS011;62035;52.094;5.112;2023-04-15T14:52:57;3.25;;;1.67;;
62030;SDS011;62035;52.094;5.112;2023-04-15T14:55:25;5.53;;;1.80;;
62030;SDS011;62035;52.094;5.112;2023-04-15T14:57:54;5.25;;;1.30;;